Terminal Aerodrome Forecast
Issued by NWS

Home | Current Version | Previous Version | Graphics & Text | Print | Product List | Glossary On
Versions: 1 2 3 4 5 6 7 8 9 10 11 12 13 14 15
086
FTUS43 KMPX 181120
TAFAXN
TAF
KAXN 181120Z 1812/1912 26004KT P6SM BKN100
     FM181400 24004KT P6SM VCSH SCT050 OVC080
     FM182000 29005KT P6SM VCTS SCT050CB BKN100
     FM190000 24004KT P6SM SCT120
     FM190200 23004KT P6SM SKC
     FM190700 23002KT 3SM BR SKC=

USA.gov is the U.S. government's official web portal to all federal, state and local government web resources and services.